Time;durP1;ratioP1;P1;durP2;ratioP2;P2;SDS_P1;SDS_P2;PMS_P1;PMS_P2;Temp;Humidity;BMP_temperature;BMP_pressure;BME280_temperature;BME280_humidity;BME280_pressure;Samples;Min_cycle;Max_cycle;Signal;HPM_P1;HPM_P2
2022/07/19 00:01:12;;;;;;;;;10.80;10.80;;;;;19.71;41.29;100210.16;5118648;28;8998;-61
2022/07/19 00:03:39;;;;;;;;;10.00;10.00;;;;;19.68;41.36;100214.03;5103254;28;8822;-61
2022/07/19 00:06:07;;;;;;;;;8.40;8.00;;;;;19.66;41.57;100207.94;5097150;28;8976;-62
2022/07/19 00:08:35;;;;;;;;;11.40;9.60;;;;;19.60;41.36;100197.84;5097008;28;8961;-63
2022/07/19 00:11:03;;;;;;;;;8.80;8.80;;;;;19.59;41.43;100209.69;5096151;28;8928;-60
2022/07/19 00:13:31;;;;;;;;;9.40;9.40;;;;;19.56;41.51;100201.91;5096699;28;8926;-61
2022/07/19 00:15:59;;;;;;;;;5.00;5.00;;;;;19.55;41.38;100204.75;5096348;28;8834;-61
2022/07/19 00:18:28;;;;;;;;;8.00;7.40;;;;;19.52;41.79;100192.47;5096708;28;8842;-63
2022/07/19 00:20:56;;;;;;;;;9.60;9.20;;;;;19.52;41.52;100195.19;5096603;28;8988;-62
2022/07/19 00:23:24;;;;;;;;;8.60;8.60;;;;;19.53;41.76;100196.00;5096241;28;8817;-61
2022/07/19 00:25:52;;;;;;;;;12.00;11.00;;;;;19.54;41.82;100192.28;5096314;28;8838;-60
2022/07/19 00:28:20;;;;;;;;;8.00;8.00;;;;;19.55;41.91;100188.56;5106542;28;8804;-66
2022/07/19 00:30:48;;;;;;;;;7.40;6.60;;;;;19.55;41.39;100193.97;5131031;27;8984;-60
2022/07/19 00:33:17;;;;;;;;;10.00;8.00;;;;;19.53;41.63;100190.59;5138926;27;8848;-60
2022/07/19 00:35:45;;;;;;;;;13.60;12.00;;;;;19.46;41.71;100195.00;5138524;27;8826;-60
2022/07/19 00:38:13;;;;;;;;;11.00;11.00;;;;;19.39;42.12;100188.59;5138545;27;9579;-61
2022/07/19 00:40:41;;;;;;;;;13.20;11.00;;;;;19.30;41.86;100184.22;5138240;27;8980;-62
2022/07/19 00:43:09;;;;;;;;;10.80;10.60;;;;;19.20;42.12;100189.81;5137576;27;8972;-61
2022/07/19 00:45:37;;;;;;;;;11.25;11.00;;;;;19.14;42.13;100186.94;5137844;27;8830;-61
2022/07/19 00:48:04;;;;;;;;;10.00;10.00;;;;;19.08;42.47;100184.91;5137547;27;8826;-60
2022/07/19 00:50:32;;;;;;;;;9.20;9.20;;;;;19.05;42.92;100186.06;5137744;27;8976;-61
2022/07/19 00:53:01;;;;;;;;;11.00;10.00;;;;;19.06;42.68;100185.06;5137637;27;8959;-62
2022/07/19 00:55:29;;;;;;;;;10.80;10.00;;;;;19.05;42.56;100186.06;5137564;27;8937;-60
2022/07/19 00:57:57;;;;;;;;;11.00;11.00;;;;;19.03;42.59;100192.69;5130130;27;8934;-62
2022/07/19 01:00:25;;;;;;;;;10.75;10.00;;;;;18.98;42.64;100190.47;5115896;28;8840;-61
2022/07/19 01:02:53;;;;;;;;;11.80;11.00;;;;;18.93;42.66;100190.16;5116150;28;8850;-61
2022/07/19 01:05:20;;;;;;;;;12.25;12.25;;;;;18.92;42.84;100184.91;5115972;28;8840;-60
2022/07/19 01:07:48;;;;;;;;;10.00;9.75;;;;;18.87;43.00;100185.41;5134382;27;8821;-61
2022/07/19 01:10:16;;;;;;;;;10.75;10.50;;;;;18.79;43.25;100185.41;5136731;27;8855;-62
2022/07/19 01:12:44;;;;;;;;;13.00;11.00;;;;;18.72;43.09;100188.94;5137295;27;8846;-62
2022/07/19 01:15:12;;;;;;;;;13.00;13.00;;;;;18.66;43.50;100190.47;5138086;27;9007;-61
2022/07/19 01:17:40;;;;;;;;;10.50;10.00;;;;;18.61;43.39;100186.59;5137704;27;8826;-61
2022/07/19 01:20:08;;;;;;;;;13.50;12.50;;;;;18.55;43.45;100185.41;5137429;27;8980;-60
2022/07/19 01:22:36;;;;;;;;;10.00;10.00;;;;;18.49;44.15;100194.16;5135663;27;8906;-61
2022/07/19 01:25:04;;;;;;;;;10.75;10.00;;;;;18.44;44.13;100191.09;5138044;27;9534;-60
2022/07/19 01:27:32;;;;;;;;;8.25;8.25;;;;;18.37;43.45;100184.69;5136807;27;8981;-59
2022/07/19 01:29:59;;;;;;;;;10.25;9.75;;;;;18.29;43.84;100186.50;5135096;27;9849;-60
2022/07/19 01:32:27;;;;;;;;;8.25;8.25;;;;;18.24;44.51;100197.78;5135343;27;8818;-59
2022/07/19 01:34:55;;;;;;;;;9.00;7.75;;;;;18.18;44.43;100190.34;5136050;27;8838;-61
2022/07/19 01:37:23;;;;;;;;;9.50;8.25;;;;;18.13;44.67;100189.97;5137328;27;9593;-61
2022/07/19 01:39:51;;;;;;;;;12.75;11.00;;;;;18.10;44.46;100195.72;5137213;27;8952;-61
2022/07/19 01:42:19;;;;;;;;;10.50;10.50;;;;;18.09;44.67;100191.34;5137343;27;8829;-61
2022/07/19 01:44:47;;;;;;;;;9.50;9.00;;;;;18.08;43.96;100188.78;5137430;27;8851;-61
2022/07/19 01:47:16;;;;;;;;;11.25;11.25;;;;;18.07;44.74;100193.31;5137078;27;8899;-60
2022/07/19 01:49:44;;;;;;;;;8.00;8.00;;;;;18.04;45.06;100195.50;5137204;27;8838;-62
2022/07/19 01:52:11;;;;;;;;;10.75;10.00;;;;;18.00;44.30;100186.91;5129118;27;8950;-60
2022/07/19 01:54:39;;;;;;;;;11.00;10.00;;;;;17.94;44.93;100192.97;5116429;28;8957;-60
2022/07/19 01:57:08;;;;;;;;;13.75;11.75;;;;;17.90;44.99;100199.66;5116231;28;8832;-60
2022/07/19 01:59:36;;;;;;;;;6.75;6.75;;;;;17.90;45.10;100188.06;5116615;28;8860;-65
2022/07/19 02:02:04;;;;;;;;;10.50;10.50;;;;;17.91;44.75;100187.06;5116218;28;8816;-62
2022/07/19 02:04:32;;;;;;;;;12.00;12.00;;;;;17.94;45.03;100194.81;5115759;28;8824;-60
2022/07/19 02:07:00;;;;;;;;;13.50;13.50;;;;;17.94;44.78;100192.09;5115985;28;9006;-60
2022/07/19 02:09:28;;;;;;;;;10.00;9.00;;;;;17.95;45.04;100183.88;5116057;28;8843;-62
2022/07/19 02:11:55;;;;;;;;;14.00;13.50;;;;;17.96;44.71;100185.56;5116422;28;8827;-61
2022/07/19 02:14:23;;;;;;;;;11.00;9.25;;;;;17.98;44.92;100185.41;5116276;28;8836;-62
2022/07/19 02:16:51;;;;;;;;;12.50;12.50;;;;;17.98;44.59;100182.72;5115744;28;8954;-60
2022/07/19 02:19:20;;;;;;;;;10.25;10.00;;;;;17.98;44.65;100180.00;5115933;28;9771;-60
2022/07/19 02:21:48;;;;;;;;;9.50;9.50;;;;;17.96;45.05;100182.00;5119423;27;8954;-62
2022/07/19 02:24:16;;;;;;;;;11.25;11.25;;;;;17.94;45.43;100179.50;5136551;27;8833;-61
2022/07/19 02:26:43;;;;;;;;;12.00;11.00;;;;;17.94;44.75;100182.19;5136730;27;8844;-62
2022/07/19 02:29:11;;;;;;;;;10.00;10.00;;;;;17.93;44.58;100175.09;5136554;27;8895;-60
2022/07/19 02:31:39;;;;;;;;;11.00;10.00;;;;;17.93;44.88;100175.09;5136297;27;8988;-60
2022/07/19 02:34:07;;;;;;;;;17.75;14.75;;;;;17.91;45.17;100171.72;5135960;27;8964;-60
2022/07/19 02:36:36;;;;;;;;;18.25;18.25;;;;;17.91;45.09;100169.03;5136182;27;8834;-60
2022/07/19 02:39:04;;;;;;;;;19.25;17.25;;;;;17.90;45.06;100170.03;5136040;27;8864;-61
2022/07/19 02:41:32;;;;;;;;;20.00;19.00;;;;;17.89;44.76;100162.94;5136429;27;8976;-60
2022/07/19 02:44:00;;;;;;;;;24.50;21.25;;;;;17.90;45.17;100169.19;5136023;27;8984;-61
2022/07/19 02:46:28;;;;;;;;;15.50;15.50;;;;;17.90;45.07;100170.03;5136059;27;8880;-61
2022/07/19 02:48:56;;;;;;;;;21.75;21.25;;;;;17.90;44.73;100172.72;5136059;27;8992;-60
2022/07/19 02:51:24;;;;;;;;;24.00;19.50;;;;;17.89;44.78;100179.13;5132586;27;8858;-61
2022/07/19 02:53:52;;;;;;;;;21.00;19.00;;;;;17.88;44.74;100171.19;5114996;28;8828;-62
2022/07/19 02:56:20;;;;;;;;;15.75;14.50;;;;;17.87;45.35;100175.75;5115203;28;8847;-60
2022/07/19 02:58:48;;;;;;;;;17.00;16.00;;;;;17.86;45.19;100171.38;5116108;28;9614;-62
2022/07/19 03:01:16;;;;;;;;;14.50;12.75;;;;;17.86;44.97;100171.38;5115000;28;8855;-62
2022/07/19 03:03:47;;;;;;;;;13.50;12.50;;;;;17.84;45.35;100164.47;5114286;28;8867;-61
2022/07/19 03:06:15;;;;;;;;;15.00;12.50;;;;;17.81;44.66;100160.22;5115180;28;8924;-60
2022/07/19 03:08:43;;;;;;;;;9.00;9.00;;;;;17.77;45.34;100169.63;5115201;28;9489;-60
2022/07/19 03:11:11;;;;;;;;;12.75;12.75;;;;;17.72;45.66;100165.75;5115677;28;8946;-62
2022/07/19 03:13:38;;;;;;;;;15.50;15.25;;;;;17.67;45.61;100165.38;5115321;28;8844;-62
2022/07/19 03:16:06;;;;;;;;;10.00;10.00;;;;;17.62;45.71;100165.84;5115015;28;8966;-60
2022/07/19 03:18:35;;;;;;;;;13.00;12.50;;;;;17.61;46.21;100161.47;5115549;28;9512;-61
2022/07/19 03:21:03;;;;;;;;;12.00;11.50;;;;;17.61;46.22;100164.19;5115369;27;8969;-60
2022/07/19 03:23:30;;;;;;;;;9.25;9.25;;;;;17.58;46.03;100158.25;5135869;27;8840;-62
2022/07/19 03:25:58;;;;;;;;;12.75;12.00;;;;;17.57;45.88;100156.59;5134184;27;8833;-60
2022/07/19 03:28:26;;;;;;;;;12.50;11.00;;;;;17.56;45.77;100160.28;5134437;27;8967;-61
2022/07/19 03:30:54;;;;;;;;;11.00;10.50;;;;;17.57;46.03;100156.59;5137176;27;8849;-61
2022/07/19 03:33:22;;;;;;;;;13.50;13.00;;;;;17.58;46.25;100152.88;5138860;27;8834;-65
2022/07/19 03:35:50;;;;;;;;;12.25;11.50;;;;;17.59;46.03;100155.41;5139819;27;8846;-62
2022/07/19 03:38:18;;;;;;;;;12.00;10.00;;;;;17.58;45.75;100159.13;5139211;27;8829;-62
2022/07/19 03:40:47;;;;;;;;;9.75;9.75;;;;;17.60;46.34;100157.09;5133746;27;8840;-61
2022/07/19 03:43:15;;;;;;;;;10.00;9.50;;;;;17.60;46.31;100167.88;5138618;27;8916;-61
2022/07/19 03:45:44;;;;;;;;;10.75;10.00;;;;;17.60;46.34;100167.88;5139542;27;8830;-62
2022/07/19 03:48:11;;;;;;;;;13.00;11.50;;;;;17.58;45.81;100160.97;5137862;27;8980;-62
2022/07/19 03:50:39;;;;;;;;;11.75;11.75;;;;;17.54;46.44;100160.44;5139186;27;8833;-62
2022/07/19 03:53:07;;;;;;;;;10.00;10.00;;;;;17.50;46.22;100167.16;5139401;27;8955;-61
2022/07/19 03:55:35;;;;;;;;;12.50;12.50;;;;;17.45;46.55;100169.47;5139043;27;8853;-61
2022/07/19 03:58:03;;;;;;;;;11.75;11.75;;;;;17.44;46.02;100167.78;5139351;27;8845;-61
2022/07/19 04:00:31;;;;;;;;;10.25;10.25;;;;;17.43;45.75;100166.13;5138336;27;8846;-60
2022/07/19 04:02:59;;;;;;;;;9.75;9.25;;;;;17.46;46.59;100176.56;5139095;27;8833;-61
2022/07/19 04:05:27;;;;;;;;;12.50;10.00;;;;;17.49;45.93;100170.88;5128422;27;8820;-65
2022/07/19 04:07:55;;;;;;;;;12.25;12.25;;;;;17.52;45.93;100167.84;5118509;28;8836;-61
2022/07/19 04:10:23;;;;;;;;;13.00;13.00;;;;;17.57;46.05;100170.03;5118445;28;8840;-63
2022/07/19 04:12:50;;;;;;;;;11.25;10.75;;;;;17.61;46.34;100179.50;5118062;28;8836;-64
2022/07/19 04:15:18;;;;;;;;;9.25;9.25;;;;;17.65;46.14;100175.47;5118727;28;9671;-61
2022/07/19 04:17:46;;;;;;;;;9.00;9.00;;;;;17.69;45.82;100166.91;5118248;28;8832;-62
2022/07/19 04:20:14;;;;;;;;;6.00;6.00;;;;;17.74;45.72;100172.66;5118348;28;9847;-61
2022/07/19 04:22:42;;;;;;;;;11.25;11.00;;;;;17.81;45.93;100170.16;5118462;28;8827;-61
2022/07/19 04:25:10;;;;;;;;;11.25;11.25;;;;;17.87;45.48;100169.50;5118522;28;8890;-61
2022/07/19 04:27:38;;;;;;;;;10.25;10.00;;;;;17.92;45.46;100178.78;5118040;28;8998;-61
2022/07/19 04:30:06;;;;;;;;;7.00;7.00;;;;;17.98;45.98;100172.75;5109639;28;8890;-63
2022/07/19 04:32:33;;;;;;;;;12.25;12.25;;;;;18.04;45.71;100169.41;5096856;28;8842;-62
2022/07/19 04:35:01;;;;;;;;;13.75;13.25;;;;;18.11;45.64;100173.13;5101937;28;8958;-67
2022/07/19 04:37:30;;;;;;;;;12.50;12.25;;;;;18.19;45.21;100175.84;5116743;28;8831;-61
2022/07/19 04:39:57;;;;;;;;;10.25;10.00;;;;;18.31;45.01;100174.59;5115560;28;8844;-62
2022/07/19 04:42:25;;;;;;;;;10.75;7.75;;;;;18.42;45.23;100174.25;5116047;28;9603;-61
2022/07/19 04:44:53;;;;;;;;;12.00;11.25;;;;;18.53;45.42;100167.69;5117226;28;8836;-61
2022/07/19 04:47:21;;;;;;;;;10.00;9.75;;;;;18.61;45.14;100170.41;5118246;28;8836;-61
2022/07/19 04:49:49;;;;;;;;;8.00;8.00;;;;;18.71;44.95;100168.38;5117985;28;8969;-61
2022/07/19 04:52:17;;;;;;;;;13.75;12.75;;;;;18.82;45.36;100163.47;5117577;28;8854;-61
2022/07/19 04:54:44;;;;;;;;;11.75;10.25;;;;;18.92;44.64;100172.28;5116951;28;8820;-60
2022/07/19 04:57:13;;;;;;;;;13.50;13.00;;;;;18.98;45.20;100170.75;5118053;28;8824;-62
2022/07/19 04:59:41;;;;;;;;;12.25;12.25;;;;;19.05;44.83;100169.88;5117288;28;8970;-60
2022/07/19 05:02:09;;;;;;;;;14.00;13.00;;;;;19.16;45.01;100166.84;5117416;28;8947;-59
2022/07/19 05:04:37;;;;;;;;;13.00;12.50;;;;;19.22;44.41;100158.09;5114317;28;8832;-66
2022/07/19 05:07:05;;;;;;;;;13.50;13.50;;;;;19.31;44.44;100157.06;5095250;28;8826;-61
2022/07/19 05:09:33;;;;;;;;;12.50;11.50;;;;;19.39;44.80;100154.34;5096332;28;8834;-62
2022/07/19 05:12:05;;;;;;;;;10.25;10.00;;;;;19.46;44.47;100158.03;5096412;28;8984;-61
2022/07/19 05:14:33;;;;;;;;;10.75;10.50;;;;;19.56;44.43;100150.56;5096629;28;8907;-63
2022/07/19 05:17:01;;;;;;;;;12.40;10.20;;;;;19.68;43.88;100145.63;5095317;28;8833;-70
2022/07/19 05:19:28;;;;;;;;;10.60;10.60;;;;;19.82;44.06;100148.44;5094549;28;8972;-61
2022/07/19 05:21:56;;;;;;;;;9.80;9.80;;;;;19.92;43.47;100151.78;5095445;28;8968;-61
2022/07/19 05:24:24;;;;;;;;;11.00;10.60;;;;;20.07;43.51;100150.03;5096120;28;9817;-61
2022/07/19 05:26:52;;;;;;;;;13.20;13.20;;;;;20.15;43.85;100149.13;5096368;28;8903;-62
2022/07/19 05:29:20;;;;;;;;;12.00;11.20;;;;;20.27;43.59;100151.28;5095259;28;8992;-61
2022/07/19 05:31:48;;;;;;;;;11.40;10.40;;;;;20.42;43.12;100141.38;5095201;28;8992;-61
2022/07/19 05:34:16;;;;;;;;;11.60;11.40;;;;;20.59;43.16;100136.66;5097057;28;8858;-63
2022/07/19 05:36:44;;;;;;;;;8.20;8.00;;;;;20.76;42.63;100141.78;5115324;28;8859;-61
2022/07/19 05:39:12;;;;;;;;;9.40;9.40;;;;;20.94;42.71;100143.16;5115061;28;8859;-61
2022/07/19 05:41:39;;;;;;;;;8.60;8.60;;;;;21.10;42.50;100142.19;5115596;28;9541;-62
2022/07/19 05:44:07;;;;;;;;;9.40;9.40;;;;;21.23;42.31;100136.97;5115471;28;8867;-61
2022/07/19 05:46:40;;;;;;;;;7.00;7.00;;;;;21.35;41.80;100138.19;5098621;28;9463;-61
2022/07/19 05:49:10;;;;;;;;;11.00;9.00;;;;;21.53;41.83;100134.09;5094073;28;8830;-61
2022/07/19 05:51:38;;;;;;;;;11.80;10.80;;;;;21.71;41.66;100136.47;5093510;28;8826;-63
2022/07/19 05:54:05;;;;;;;;;9.00;9.00;;;;;21.89;41.70;100134.19;5102429;28;8858;-61
2022/07/19 05:56:33;;;;;;;;;9.00;9.00;;;;;22.09;41.20;100135.28;5113944;28;8904;-62
2022/07/19 05:59:01;;;;;;;;;7.40;6.00;;;;;22.27;41.08;100144.69;5113237;28;8960;-64
2022/07/19 06:01:30;;;;;;;;;8.60;8.40;;;;;22.47;40.75;100139.50;5113819;28;8928;-61
2022/07/19 06:03:58;;;;;;;;;9.00;9.00;;;;;22.64;40.75;100139.06;5113124;28;8852;-61
2022/07/19 06:06:26;;;;;;;;;8.40;8.40;;;;;22.78;40.33;100135.41;5113548;28;8836;-63
2022/07/19 06:08:54;;;;;;;;;12.00;10.00;;;;;22.92;40.40;100134.50;5113142;28;9556;-62
2022/07/19 06:11:22;;;;;;;;;8.80;8.00;;;;;23.10;40.42;100139.44;5113735;28;8828;-61
2022/07/19 06:13:50;;;;;;;;;8.40;8.40;;;;;23.23;39.78;100132.25;5113412;28;8843;-61
2022/07/19 06:16:20;;;;;;;;;8.60;8.60;;;;;23.38;39.54;100133.00;5113562;28;8824;-63
2022/07/19 06:18:48;;;;;;;;;8.80;8.80;;;;;23.54;39.46;100138.13;5113967;28;8835;-62
2022/07/19 06:21:17;;;;;;;;;10.20;10.00;;;;;23.68;39.40;100133.59;5114742;28;8840;-61
2022/07/19 06:23:45;;;;;;;;;9.40;9.40;;;;;23.82;39.69;100135.34;5112862;28;8832;-61
2022/07/19 06:26:13;;;;;;;;;11.20;8.60;;;;;23.96;39.54;100139.84;5097093;28;8826;-61
2022/07/19 06:28:40;;;;;;;;;9.80;9.40;;;;;24.11;38.84;100133.19;5094328;28;8976;-63
2022/07/19 06:31:08;;;;;;;;;8.60;6.60;;;;;24.30;38.71;100131.59;5094110;28;8954;-62
2022/07/19 06:33:36;;;;;;;;;11.20;10.20;;;;;24.45;38.84;100129.53;5094100;28;8850;-62
2022/07/19 06:36:04;;;;;;;;;9.00;9.00;;;;;24.59;38.45;100126.66;5094212;28;8883;-61
2022/07/19 06:38:32;;;;;;;;;10.00;10.00;;;;;24.71;38.58;100127.72;5093470;28;9628;-61
2022/07/19 06:41:00;;;;;;;;;8.60;8.40;;;;;24.87;38.63;100131.94;5092299;28;8858;-63
2022/07/19 06:43:28;;;;;;;;;8.40;8.20;;;;;25.02;38.26;100133.41;5091691;28;9523;-61
2022/07/19 06:45:56;;;;;;;;;11.00;11.00;;;;;25.17;38.02;100127.75;5091944;28;8936;-65
2022/07/19 06:48:24;;;;;;;;;7.00;6.40;;;;;25.32;38.23;100128.41;5092731;28;8838;-64
2022/07/19 06:50:52;;;;;;;;;8.00;7.00;;;;;25.48;37.56;100131.50;5092927;28;8968;-61
2022/07/19 06:53:20;;;;;;;;;10.80;10.00;;;;;25.63;37.31;100137.53;5094439;28;8830;-62
2022/07/19 06:55:48;;;;;;;;;10.40;10.40;;;;;25.80;37.60;100133.31;5113835;28;8859;-61
2022/07/19 06:58:16;;;;;;;;;11.00;11.00;;;;;25.98;37.41;100136.22;5113938;28;8843;-63
2022/07/19 07:00:44;;;;;;;;;11.00;9.80;;;;;26.13;37.02;100134.06;5113208;28;8982;-61
2022/07/19 07:03:12;;;;;;;;;9.80;8.60;;;;;26.28;36.76;100142.81;5113929;28;8843;-61
2022/07/19 07:05:40;;;;;;;;;8.40;8.40;;;;;26.44;37.05;100131.38;5117825;28;8887;-62
2022/07/19 07:08:08;;;;;;;;;10.80;9.00;;;;;26.60;36.29;100130.88;5118951;28;8874;-61
2022/07/19 07:10:36;;;;;;;;;7.80;7.80;;;;;26.76;36.77;100131.19;5119389;28;8820;-62
2022/07/19 07:13:03;;;;;;;;;8.00;8.00;;;;;26.94;35.87;100130.44;5118901;28;8904;-62
2022/07/19 07:15:31;;;;;;;;;7.00;7.00;;;;;27.08;36.52;100130.09;5118846;28;8820;-61
2022/07/19 07:18:00;;;;;;;;;9.00;8.80;;;;;27.24;36.02;100129.53;5118961;28;8827;-61
2022/07/19 07:20:27;;;;;;;;;9.00;9.00;;;;;27.40;36.16;100128.97;5118801;28;8828;-61
2022/07/19 07:22:55;;;;;;;;;8.00;8.00;;;;;27.55;35.54;100129.44;5117558;28;8827;-61
2022/07/19 07:25:23;;;;;;;;;9.00;9.00;;;;;27.72;35.34;100126.94;5116045;28;8820;-61
2022/07/19 07:27:51;;;;;;;;;9.40;9.20;;;;;27.89;35.21;100128.03;5118924;28;9478;-61
2022/07/19 07:30:19;;;;;;;;;9.80;9.40;;;;;28.04;35.47;100129.34;5127431;27;8869;-60
2022/07/19 07:32:47;;;;;;;;;8.80;8.80;;;;;28.21;35.39;100127.63;5139081;27;8956;-61
2022/07/19 07:35:14;;;;;;;;;10.80;9.00;;;;;28.34;35.29;100127.47;5139166;27;9705;-61
2022/07/19 07:37:43;;;;;;;;;11.40;11.00;;;;;28.47;34.97;100130.06;5139358;27;8825;-61
2022/07/19 07:40:11;;;;;;;;;11.00;10.60;;;;;28.58;35.09;100137.47;5137459;27;8857;-61
2022/07/19 07:42:38;;;;;;;;;11.20;11.00;;;;;28.69;34.56;100130.38;5118377;28;8858;-61
2022/07/19 07:45:07;;;;;;;;;10.00;10.00;;;;;28.82;34.39;100124.69;5118051;28;8966;-62
2022/07/19 07:47:35;;;;;;;;;10.00;10.00;;;;;28.97;34.43;100127.84;5118291;28;8844;-61
2022/07/19 07:50:03;;;;;;;;;10.40;10.40;;;;;29.13;34.08;100127.97;5117737;28;8856;-62
2022/07/19 07:52:31;;;;;;;;;9.00;9.00;;;;;29.28;33.92;100122.84;5118215;28;8843;-61
2022/07/19 07:54:59;;;;;;;;;10.40;9.20;;;;;29.44;34.28;100118.56;5117682;28;8946;-62
2022/07/19 07:57:47;;;;;;;;;11.80;11.20;;;;;29.60;33.80;100118.72;5117677;28;8896;-62
2022/07/19 08:00:14;;;;;;;;;11.40;11.40;;;;;29.75;33.64;100121.81;5117403;28;8851;-61
2022/07/19 08:02:42;;;;;;;;;10.00;9.20;;;;;29.92;33.86;100121.88;5117918;28;8831;-61
2022/07/19 08:05:11;;;;;;;;;10.00;9.00;;;;;30.10;33.39;100119.00;5118822;28;8878;-61
2022/07/19 08:07:38;;;;;;;;;13.60;12.00;;;;;30.26;33.20;100115.47;5118040;28;8920;-61
2022/07/19 08:10:06;;;;;;;;;10.60;9.80;;;;;30.44;33.14;100115.28;5117920;27;8851;-62
2022/07/19 08:12:34;;;;;;;;;11.00;10.60;;;;;30.59;32.91;100116.41;5138666;27;8829;-60
2022/07/19 08:15:02;;;;;;;;;11.80;10.20;;;;;30.73;33.29;100109.56;5137856;27;8834;-61
2022/07/19 08:17:30;;;;;;;;;11.00;9.40;;;;;30.88;32.32;100101.56;5137695;27;8821;-60
2022/07/19 08:19:58;;;;;;;;;7.00;7.00;;;;;31.04;32.16;100107.06;5137965;27;8833;-61
2022/07/19 08:22:27;;;;;;;;;8.80;8.20;;;;;31.22;32.25;100098.59;5137606;27;8814;-62
2022/07/19 08:24:56;;;;;;;;;8.00;7.40;;;;;31.44;31.84;100095.88;5137727;27;8864;-61
2022/07/19 08:27:24;;;;;;;;;7.00;7.00;;;;;31.64;31.57;100093.41;5135167;27;8873;-65
2022/07/19 08:29:53;;;;;;;;;7.25;7.25;;;;;31.86;31.21;100094.31;5119807;27;8841;-60
2022/07/19 08:32:21;;;;;;;;;8.00;7.60;;;;;32.07;31.51;100094.28;5126250;27;8821;-60
2022/07/19 08:34:50;;;;;;;;;7.20;7.20;;;;;32.22;31.27;100077.97;5135736;27;8857;-60
2022/07/19 08:37:19;;;;;;;;;7.00;7.00;;;;;32.40;31.26;100085.06;5116753;27;8816;-60
2022/07/19 08:39:50;;;;;;;;;7.00;6.00;;;;;32.58;31.07;100087.44;5115350;28;9481;-62
2022/07/19 08:42:19;;;;;;;;;7.00;7.00;;;;;32.73;30.71;100091.22;5116173;28;8859;-62
2022/07/19 08:44:48;;;;;;;;;6.20;6.20;;;;;32.86;30.40;100089.94;5126141;27;8817;-60
2022/07/19 08:47:16;;;;;;;;;7.20;7.00;;;;;33.02;30.26;100094.50;5138004;27;8948;-61
2022/07/19 08:49:44;;;;;;;;;8.40;8.00;;;;;33.18;29.86;100082.47;5137413;27;8844;-61
2022/07/19 08:52:12;;;;;;;;;5.80;5.80;;;;;33.36;29.95;100085.69;5137538;27;8872;-61
2022/07/19 08:54:40;;;;;;;;;5.80;5.40;;;;;33.48;30.02;100077.19;5136653;27;8837;-63
2022/07/19 08:59:53;;;;;;;;;8.80;7.00;;;;;33.78;29.04;100083.75;5115950;28;8871;-61
2022/07/19 09:02:21;;;;;;;;;8.60;8.60;;;;;33.91;28.56;100082.44;5116361;28;8808;-61
2022/07/19 09:04:49;;;;;;;;;7.00;7.00;;;;;34.04;28.55;100081.94;5116663;28;9631;-60
2022/07/19 09:07:17;;;;;;;;;7.60;7.60;;;;;34.13;28.33;100078.34;5116596;28;8966;-61
2022/07/19 09:09:45;;;;;;;;;5.20;5.20;;;;;34.25;28.13;100086.44;5116442;28;8831;-61
2022/07/19 09:12:15;;;;;;;;;5.40;5.40;;;;;34.40;27.83;100078.19;5116021;28;8828;-60
2022/07/19 09:14:43;;;;;;;;;5.00;5.00;;;;;34.54;27.72;100079.31;5116612;28;8986;-60
2022/07/19 09:17:12;;;;;;;;;6.20;6.00;;;;;34.62;27.82;100079.63;5115769;28;8842;-61
2022/07/19 09:19:40;;;;;;;;;5.60;5.60;;;;;34.72;27.35;100073.28;5116376;28;8914;-61
2022/07/19 09:22:09;;;;;;;;;6.00;5.80;;;;;34.80;26.82;100076.34;5116604;28;8835;-61
2022/07/19 09:24:37;;;;;;;;;6.00;6.00;;;;;34.92;27.24;100073.28;5116195;28;8946;-60
2022/07/19 09:27:05;;;;;;;;;6.40;6.00;;;;;35.05;27.55;100067.19;5115954;28;8916;-61
2022/07/19 09:29:33;;;;;;;;;4.80;4.80;;;;;35.20;26.81;100070.84;5115941;27;9482;-61
2022/07/19 09:32:00;;;;;;;;;5.20;5.20;;;;;35.30;27.08;100072.75;5095427;28;8837;-61
2022/07/19 09:34:28;;;;;;;;;5.00;5.00;;;;;35.38;26.45;100066.63;5095274;28;8880;-61
2022/07/19 09:36:57;;;;;;;;;4.80;4.40;;;;;35.48;25.95;100067.44;5095633;28;8834;-61
2022/07/19 09:39:24;;;;;;;;;4.40;4.40;;;;;35.66;26.41;100063.22;5094425;28;8922;-61
2022/07/19 09:41:52;;;;;;;;;5.00;5.00;;;;;35.85;25.26;100064.31;5093322;28;8829;-61
2022/07/19 09:44:20;;;;;;;;;4.80;4.80;;;;;36.00;25.33;100061.47;5094423;28;8957;-61
2022/07/19 09:46:50;;;;;;;;;6.00;6.00;;;;;36.05;25.15;100052.00;5095374;28;8842;-61
2022/07/19 09:49:18;;;;;;;;;7.00;6.20;;;;;36.08;24.76;100058.09;5095111;28;8842;-60
2022/07/19 09:51:46;;;;;;;;;4.80;4.80;;;;;36.11;25.09;100056.41;5102842;28;8824;-61
2022/07/19 09:54:14;;;;;;;;;6.00;5.00;;;;;36.27;25.08;100057.19;5116092;28;8832;-61
2022/07/19 09:56:42;;;;;;;;;6.80;6.80;;;;;36.44;24.67;100052.94;5115608;28;8848;-61
2022/07/19 09:59:10;;;;;;;;;5.40;5.00;;;;;36.70;24.41;100048.88;5115493;28;8910;-61
2022/07/19 10:01:37;;;;;;;;;5.40;5.40;;;;;36.94;23.87;100049.78;5115535;28;8839;-61
2022/07/19 10:04:06;;;;;;;;;4.00;4.00;;;;;37.15;23.72;100040.16;5114658;28;8824;-61
2022/07/19 10:06:35;;;;;;;;;6.00;6.00;;;;;37.41;22.45;100046.28;5114427;28;8836;-61
2022/07/19 10:09:03;;;;;;;;;6.20;6.00;;;;;37.64;22.88;100049.13;5114599;28;9552;-61
2022/07/19 10:11:31;;;;;;;;;5.00;5.00;;;;;38.01;22.55;100037.28;5113801;28;8886;-60
2022/07/19 10:13:58;;;;;;;;;6.00;5.00;;;;;38.46;22.47;100042.22;5114041;28;8824;-60
2022/07/19 10:16:27;;;;;;;;;5.00;5.00;;;;;38.90;22.65;100040.69;5113696;28;8831;-60
2022/07/19 10:18:55;;;;;;;;;6.40;6.00;;;;;39.18;21.40;100036.84;5114114;28;8850;-61
2022/07/19 10:21:23;;;;;;;;;6.00;6.00;;;;;39.50;22.03;100030.41;5110389;28;8834;-58
2022/07/19 10:23:53;;;;;;;;;5.00;5.00;;;;;39.86;21.43;100028.56;5094387;28;8814;-61
2022/07/19 10:26:22;;;;;;;;;4.40;4.40;;;;;40.20;20.93;100031.75;5095602;28;8826;-58
2022/07/19 10:28:49;;;;;;;;;3.60;3.00;;;;;40.58;20.34;100030.31;5095635;28;8850;-59
2022/07/19 10:31:36;;;;;;;;;6.80;6.60;;;;;40.87;20.61;100014.75;5095470;28;8857;-61
2022/07/19 10:34:05;;;;;;;;;5.00;4.60;;;;;41.18;20.59;100021.25;5095069;28;8918;-60
2022/07/19 10:36:33;;;;;;;;;4.40;4.40;;;;;41.52;20.14;100015.00;5095122;28;8826;-61
2022/07/19 10:39:01;;;;;;;;;4.60;4.60;;;;;41.87;20.06;100020.44;5094641;28;8841;-61
2022/07/19 10:41:29;;;;;;;;;5.00;5.00;;;;;42.26;19.76;100009.16;5095126;28;8919;-61
2022/07/19 10:43:57;;;;;;;;;5.20;5.20;;;;;42.31;19.41;100020.22;5094730;28;8872;-61
2022/07/19 10:46:25;;;;;;;;;6.40;5.80;;;;;42.33;19.39;100006.69;5095453;28;8849;-59
2022/07/19 10:48:56;;;;;;;;;3.00;3.00;;;;;42.41;19.34;100003.06;5094922;28;8849;-58
2022/07/19 10:51:24;;;;;;;;;3.20;3.20;;;;;42.55;19.53;100001.75;5096643;28;8819;-58
2022/07/19 10:53:52;;;;;;;;;5.00;4.40;;;;;42.86;19.30;99995.97;5094533;28;8979;-58
2022/07/19 10:56:19;;;;;;;;;5.40;5.20;;;;;43.13;19.44;99988.00;5094169;28;8845;-58
2022/07/19 10:58:47;;;;;;;;;4.20;4.20;;;;;43.45;18.79;99983.78;5093571;28;8830;-58
2022/07/19 11:01:15;;;;;;;;;6.00;5.40;;;;;43.50;18.56;99983.56;5093843;28;8858;-59
2022/07/19 11:03:43;;;;;;;;;6.60;6.40;;;;;43.54;18.33;99987.38;5094251;28;8834;-58
2022/07/19 11:06:15;;;;;;;;;6.00;6.00;;;;;43.75;18.46;99975.03;5093934;28;8926;-59
2022/07/19 11:08:43;;;;;;;;;5.20;5.20;;;;;43.88;17.86;99979.59;5094374;28;8890;-58
2022/07/19 11:11:12;;;;;;;;;6.20;6.20;;;;;44.02;17.89;99980.16;5095201;28;8922;-58
2022/07/19 11:13:40;;;;;;;;;7.00;6.40;;;;;44.26;17.80;99979.50;5094547;28;8853;-59
2022/07/19 11:16:08;;;;;;;;;7.00;7.00;;;;;44.58;17.78;99975.97;5094696;28;8851;-59
2022/07/19 11:18:36;;;;;;;;;4.60;4.60;;;;;44.89;17.27;99962.25;5093800;28;9548;-58
2022/07/19 11:21:04;;;;;;;;;5.20;5.20;;;;;45.15;17.31;99957.13;5093176;28;8824;-59
2022/07/19 11:23:32;;;;;;;;;5.40;4.60;;;;;45.19;17.35;99953.28;5092804;28;8814;-59
2022/07/19 11:26:00;;;;;;;;;5.80;5.80;;;;;45.29;17.23;99957.66;5092532;28;8964;-59
2022/07/19 11:28:28;;;;;;;;;4.80;4.80;;;;;45.41;17.22;99957.69;5092585;28;8834;-59
2022/07/19 11:30:56;;;;;;;;;3.20;3.20;;;;;45.56;17.12;99954.16;5092782;28;8854;-58
2022/07/19 11:33:24;;;;;;;;;5.80;5.80;;;;;45.64;17.24;99948.41;5102092;28;8850;-58